createdAt,value
2018-07-07T00:00:36.396Z,99.90
2018-07-07T00:03:04.092Z,99.90
2018-07-07T00:05:31.699Z,99.90
2018-07-07T00:07:59.499Z,99.90
2018-07-07T00:12:54.632Z,99.90
2018-07-07T00:15:23.628Z,99.90
2018-07-07T00:17:51.329Z,99.90
2018-07-07T00:20:19.499Z,99.90
2018-07-07T00:22:47.586Z,99.90
2018-07-07T00:25:16.547Z,99.90
2018-07-07T00:27:45.245Z,99.90
2018-07-07T00:30:13.021Z,99.90
2018-07-07T00:32:40.752Z,99.90
2018-07-07T00:35:08.544Z,99.90
2018-07-07T00:37:36.212Z,99.90
2018-07-07T00:40:04.320Z,99.90
2018-07-07T00:42:32.036Z,99.90
2018-07-07T00:44:59.661Z,99.90
2018-07-07T00:47:27.443Z,99.90
2018-07-07T00:49:55.312Z,99.90
2018-07-07T00:52:22.911Z,99.90
2018-07-07T00:54:50.563Z,99.90
2018-07-07T00:57:18.438Z,99.90
2018-07-07T01:02:23.306Z,99.90
2018-07-07T01:04:52.128Z,99.90
2018-07-07T01:07:20.199Z,99.90
2018-07-07T01:09:47.806Z,99.90
2018-07-07T01:14:43.159Z,99.90
2018-07-07T01:17:10.776Z,99.90
2018-07-07T01:19:38.587Z,99.90
2018-07-07T01:22:08.463Z,99.90
2018-07-07T01:27:03.808Z,99.90
2018-07-07T01:29:31.483Z,99.90
2018-07-07T01:31:59.234Z,99.90
2018-07-07T01:34:26.887Z,99.90
2018-07-07T01:39:22.269Z,99.90
2018-07-07T01:41:49.888Z,99.90
2018-07-07T01:44:17.719Z,99.90
2018-07-07T01:51:40.477Z,99.90
2018-07-07T01:54:08.127Z,99.90
2018-07-07T01:56:36.069Z,99.90
2018-07-07T01:59:03.736Z,99.90
2018-07-07T02:01:31.341Z,99.90
2018-07-07T02:03:58.991Z,99.90
2018-07-07T02:06:26.649Z,99.90
2018-07-07T02:08:54.274Z,99.90
2018-07-07T02:11:21.886Z,99.90
2018-07-07T02:16:17.337Z,99.90
2018-07-07T02:18:44.974Z,99.90
2018-07-07T02:21:12.660Z,99.90
2018-07-07T02:23:40.343Z,99.90
2018-07-07T02:26:08.463Z,99.90
2018-07-07T02:31:03.638Z,99.90
2018-07-07T02:33:31.464Z,99.90
2018-07-07T02:35:59.251Z,99.90
2018-07-07T02:38:26.972Z,99.90
2018-07-07T02:43:22.219Z,99.90
2018-07-07T02:45:49.880Z,99.90
2018-07-07T02:48:17.547Z,99.90
2018-07-07T02:50:45.198Z,99.90
2018-07-07T02:53:12.919Z,99.90
2018-07-07T02:55:40.643Z,99.90
2018-07-07T02:58:08.351Z,99.90
2018-07-07T03:00:36.157Z,99.90
2018-07-07T03:03:03.910Z,99.90
2018-07-07T03:05:31.595Z,99.90
2018-07-07T03:07:59.250Z,99.90
2018-07-07T03:10:26.923Z,99.90
2018-07-07T03:12:54.593Z,99.90
2018-07-07T03:15:23.370Z,99.90
2018-07-07T03:17:51.492Z,99.90
2018-07-07T03:22:46.978Z,99.90
2018-07-07T03:25:14.674Z,99.90
2018-07-07T03:30:09.999Z,99.90
2018-07-07T03:40:01.461Z,99.90
2018-07-07T03:42:29.144Z,99.90
2018-07-07T03:44:56.957Z,99.90
2018-07-07T03:47:24.592Z,99.90
2018-07-07T03:49:52.394Z,99.90
2018-07-07T03:52:20.032Z,99.90
2018-07-07T03:54:47.788Z,99.90
2018-07-07T03:57:15.825Z,99.90
2018-07-07T03:59:43.466Z,99.90
2018-07-07T04:04:39.810Z,99.90
2018-07-07T04:07:08.248Z,99.90
2018-07-07T04:09:36.175Z,99.90
2018-07-07T04:12:03.877Z,99.90
2018-07-07T04:14:31.564Z,99.90
2018-07-07T04:16:59.310Z,99.90
2018-07-07T04:19:26.995Z,99.90
2018-07-07T04:24:23.719Z,99.90
2018-07-07T04:26:51.464Z,99.90
2018-07-07T04:29:19.146Z,99.90
2018-07-07T04:31:46.723Z,99.90
2018-07-07T04:34:14.864Z,99.90
2018-07-07T04:36:42.490Z,99.90
2018-07-07T04:39:10.286Z,99.90
2018-07-07T04:41:37.938Z,99.90
2018-07-07T04:44:05.783Z,99.90
2018-07-07T04:46:33.727Z,99.90
2018-07-07T04:49:01.427Z,99.90
2018-07-07T04:51:29.263Z,99.90
2018-07-07T04:56:24.833Z,99.90
2018-07-07T04:58:52.660Z,99.90
2018-07-07T05:03:47.961Z,99.90
2018-07-07T05:06:15.662Z,99.90
2018-07-07T05:08:43.353Z,99.90
2018-07-07T05:11:11.071Z,99.90
2018-07-07T05:13:38.839Z,99.90
2018-07-07T05:16:08.233Z,99.90
2018-07-07T05:18:35.932Z,99.90
2018-07-07T05:21:03.670Z,99.90
2018-07-07T05:23:31.505Z,99.90
2018-07-07T05:28:26.993Z,99.90
2018-07-07T05:30:54.853Z,99.90
2018-07-07T05:33:22.721Z,99.90
2018-07-07T05:35:50.345Z,99.90
2018-07-07T05:38:18.223Z,99.90
2018-07-07T05:40:45.925Z,99.90
2018-07-07T05:43:13.755Z,99.90
2018-07-07T05:45:41.534Z,99.90
2018-07-07T05:48:09.288Z,99.90
2018-07-07T05:50:37.053Z,99.90
2018-07-07T05:53:04.992Z,99.90
2018-07-07T05:55:32.694Z,99.90
2018-07-07T05:58:00.685Z,99.90
2018-07-07T06:00:29.158Z,99.60
2018-07-07T06:02:56.849Z,93.70
2018-07-07T06:05:24.470Z,90.60
2018-07-07T06:07:52.202Z,82.00
2018-07-07T06:10:20.143Z,78.00
2018-07-07T06:12:47.860Z,74.60
2018-07-07T06:15:15.532Z,67.20
2018-07-07T06:17:43.263Z,59.80
2018-07-07T06:20:11.357Z,56.60
2018-07-07T06:22:39.257Z,54.60
2018-07-07T06:27:34.533Z,50.30
2018-07-07T06:30:02.321Z,51.20
2018-07-07T06:32:29.996Z,46.50
2018-07-07T06:37:25.484Z,40.20
2018-07-07T06:39:52.997Z,41.20
2018-07-07T06:42:20.882Z,39.70
2018-07-07T06:44:49.043Z,41.70
2018-07-07T06:47:16.812Z,41.10
2018-07-07T06:49:44.543Z,40.60
2018-07-07T06:54:39.804Z,38.70
2018-07-07T06:57:07.527Z,37.70
2018-07-07T07:04:30.723Z,39.30
2018-07-07T07:06:58.641Z,38.80
2018-07-07T07:09:26.437Z,41.00
2018-07-07T07:14:21.779Z,40.40
2018-07-07T07:19:17.149Z,40.30
2018-07-07T07:21:44.867Z,38.30
2018-07-07T07:24:12.764Z,37.40
2018-07-07T07:26:40.620Z,38.30
2018-07-07T07:29:08.365Z,34.20
2018-07-07T07:31:37.025Z,36.40
2018-07-07T07:34:04.705Z,40.80
2018-07-07T07:36:41.327Z,40.30
2018-07-07T07:39:08.974Z,36.00
2018-07-07T07:41:37.621Z,36.50
2018-07-07T07:44:05.398Z,39.10
2018-07-07T07:46:33.130Z,39.30
2018-07-07T07:49:00.862Z,40.80
2018-07-07T07:51:28.880Z,42.10
2018-07-07T07:53:56.878Z,42.10
2018-07-07T07:56:25.231Z,41.90
2018-07-07T07:58:53.249Z,36.00
2018-07-07T08:01:21.788Z,32.60
2018-07-07T08:03:49.499Z,34.00
2018-07-07T08:06:17.206Z,33.70
2018-07-07T08:08:44.935Z,35.40
2018-07-07T08:11:12.698Z,37.90
2018-07-07T08:13:40.755Z,35.20
2018-07-07T08:16:08.676Z,38.60
2018-07-07T08:18:36.539Z,35.70
2018-07-07T08:21:04.299Z,36.20
2018-07-07T08:23:32.060Z,36.10
2018-07-07T08:25:59.914Z,33.70
2018-07-07T08:33:23.589Z,37.30
2018-07-07T08:35:51.806Z,40.20
2018-07-07T08:38:19.552Z,38.40
2018-07-07T08:43:16.671Z,41.80
2018-07-07T08:45:44.930Z,40.50
2018-07-07T08:48:13.088Z,40.80
2018-07-07T08:50:41.298Z,40.40
2018-07-07T08:53:09.077Z,38.90
2018-07-07T08:55:37.236Z,39.80
2018-07-07T08:58:05.271Z,40.40
2018-07-07T09:00:33.073Z,44.00
2018-07-07T09:03:01.171Z,41.60
2018-07-07T09:07:56.547Z,40.60
2018-07-07T09:10:24.167Z,41.80
2018-07-07T09:15:19.799Z,42.40
2018-07-07T09:20:15.449Z,42.20
2018-07-07T09:22:43.043Z,41.70
2018-07-07T09:25:10.711Z,42.30
2018-07-07T09:27:38.588Z,42.50
2018-07-07T09:30:06.309Z,45.10
2018-07-07T09:32:34.258Z,47.30
2018-07-07T09:35:01.907Z,43.90
2018-07-07T09:37:29.795Z,44.90
2018-07-07T09:39:57.947Z,43.90
2018-07-07T09:42:25.632Z,45.90
2018-07-07T09:44:53.369Z,44.90
2018-07-07T09:47:21.450Z,45.30
2018-07-07T09:49:49.335Z,45.60
2018-07-07T09:52:16.993Z,46.00
2018-07-07T09:54:44.703Z,45.60
2018-07-07T09:57:12.530Z,46.90
2018-07-07T09:59:40.517Z,47.10
2018-07-07T10:02:08.643Z,47.40
2018-07-07T10:04:36.590Z,47.30
2018-07-07T10:09:32.042Z,47.00
2018-07-07T10:11:59.894Z,48.10
2018-07-07T10:14:27.838Z,50.10
2018-07-07T10:16:55.753Z,47.60
2018-07-07T10:19:24.216Z,47.50
2018-07-07T10:21:51.990Z,47.90
2018-07-07T10:24:19.638Z,47.00
2018-07-07T10:26:47.357Z,47.80
2018-07-07T10:29:15.169Z,47.60
2018-07-07T10:31:42.864Z,47.70
2018-07-07T10:34:10.798Z,48.70
2018-07-07T10:36:38.677Z,48.70
2018-07-07T10:39:06.680Z,47.30
2018-07-07T10:41:36.180Z,49.30
2018-07-07T10:44:03.968Z,46.90
2018-07-07T10:46:31.841Z,46.60
2018-07-07T10:48:59.717Z,47.30
2018-07-07T10:51:27.493Z,47.20
2018-07-07T10:53:55.443Z,48.20
2018-07-07T10:58:50.977Z,46.90
2018-07-07T11:01:19.018Z,48.20
2018-07-07T11:03:46.934Z,46.80
2018-07-07T11:06:14.720Z,46.30
2018-07-07T11:08:42.486Z,45.60
2018-07-07T11:11:10.291Z,45.00
2018-07-07T11:13:38.085Z,44.50
2018-07-07T11:16:06.355Z,45.40
2018-07-07T11:18:34.090Z,46.40
2018-07-07T11:21:01.851Z,47.60
2018-07-07T11:23:29.907Z,47.00
2018-07-07T11:25:57.804Z,47.00
2018-07-07T11:30:53.337Z,47.20
2018-07-07T11:33:21.090Z,48.80
2018-07-07T11:38:16.470Z,48.20
2018-07-07T11:40:44.445Z,48.10
2018-07-07T11:43:12.530Z,48.20
2018-07-07T11:45:41.018Z,49.40
2018-07-07T11:48:09.034Z,46.60
2018-07-07T11:50:36.897Z,45.80
2018-07-07T11:53:04.655Z,46.00
2018-07-07T11:55:32.551Z,47.50
2018-07-07T11:58:02.552Z,46.40
2018-07-07T12:00:31.430Z,46.90
2018-07-07T12:02:59.979Z,47.40
2018-07-07T12:05:27.939Z,45.60
2018-07-07T12:08:00.832Z,46.60
2018-07-07T12:10:23.745Z,46.30
2018-07-07T12:12:51.987Z,46.10
2018-07-07T12:15:20.286Z,45.70
2018-07-07T12:17:48.186Z,47.10
2018-07-07T12:20:15.948Z,46.50
2018-07-07T12:22:43.748Z,46.30
2018-07-07T12:25:11.541Z,46.00
2018-07-07T12:27:39.256Z,46.50
2018-07-07T12:30:07.746Z,45.90
2018-07-07T12:35:03.609Z,47.30
2018-07-07T12:37:31.377Z,45.20
2018-07-07T12:39:59.118Z,44.40
2018-07-07T12:44:54.539Z,43.90
2018-07-07T12:49:49.849Z,45.10
2018-07-07T12:52:17.523Z,45.20
2018-07-07T12:57:13.004Z,44.20
2018-07-07T12:59:40.736Z,45.70
2018-07-07T13:02:08.390Z,43.60
2018-07-07T13:04:36.190Z,41.40
2018-07-07T13:07:04.057Z,42.70
2018-07-07T13:09:31.969Z,43.90
2018-07-07T13:14:27.265Z,44.70
2018-07-07T13:16:54.840Z,43.70
2018-07-07T13:19:22.642Z,44.00
2018-07-07T13:21:50.978Z,43.40
2018-07-07T13:24:18.870Z,44.40
2018-07-07T13:26:46.628Z,44.60
2018-07-07T13:29:14.386Z,45.60
2018-07-07T13:34:09.977Z,43.90
2018-07-07T13:36:37.935Z,43.90
2018-07-07T13:39:07.044Z,45.10
2018-07-07T13:41:36.501Z,44.60
2018-07-07T13:44:04.276Z,44.30
2018-07-07T13:46:32.120Z,45.10
2018-07-07T13:48:59.990Z,45.10
2018-07-07T13:51:27.789Z,45.30
2018-07-07T13:53:55.472Z,45.40
2018-07-07T13:56:23.498Z,45.10
2018-07-07T13:58:51.374Z,44.60
2018-07-07T14:01:19.136Z,45.50
2018-07-07T14:03:46.788Z,44.60
2018-07-07T14:06:14.508Z,45.40
2018-07-07T14:08:42.364Z,45.40
2018-07-07T14:11:10.022Z,45.90
2018-07-07T14:13:37.728Z,46.10
2018-07-07T14:16:05.566Z,45.00
2018-07-07T14:18:33.184Z,45.50
2018-07-07T14:21:00.848Z,45.70
2018-07-07T14:23:28.579Z,46.60
2018-07-07T14:25:56.464Z,46.40
2018-07-07T14:28:24.018Z,46.20
2018-07-07T14:30:51.795Z,45.50
2018-07-07T14:33:19.606Z,45.90
2018-07-07T14:35:47.471Z,46.20
2018-07-07T14:38:15.767Z,47.00
2018-07-07T14:43:16.430Z,47.00
2018-07-07T14:45:54.446Z,47.40
2018-07-07T14:48:22.162Z,47.10
2018-07-07T14:50:49.902Z,46.60
2018-07-07T14:53:17.672Z,47.10
2018-07-07T14:55:45.647Z,46.60
2018-07-07T14:58:14.241Z,46.50
2018-07-07T15:00:41.883Z,44.70
2018-07-07T15:03:09.582Z,46.20
2018-07-07T15:08:04.797Z,45.80
2018-07-07T15:13:00.095Z,46.60
2018-07-07T15:15:27.811Z,46.80
2018-07-07T15:17:55.509Z,45.70
2018-07-07T15:20:23.291Z,46.30
2018-07-07T15:22:51.117Z,45.30
2018-07-07T15:25:18.824Z,46.30
2018-07-07T15:27:46.910Z,45.90
2018-07-07T15:32:42.121Z,44.10
2018-07-07T15:35:09.877Z,42.60
2018-07-07T15:37:37.702Z,43.00
2018-07-07T15:40:05.887Z,42.40
2018-07-07T15:42:33.497Z,42.00
2018-07-07T15:45:01.221Z,43.20
2018-07-07T15:47:28.959Z,44.10
2018-07-07T15:49:56.941Z,43.80
2018-07-07T15:52:24.581Z,43.50
2018-07-07T15:54:52.320Z,43.00
2018-07-07T15:57:20.182Z,41.90
2018-07-07T15:59:47.960Z,42.70
2018-07-07T16:04:43.229Z,41.80
2018-07-07T16:07:11.102Z,42.20
2018-07-07T16:09:38.716Z,42.20
2018-07-07T16:12:06.452Z,42.20
2018-07-07T16:14:34.244Z,42.00
2018-07-07T16:17:01.964Z,43.50
2018-07-07T16:19:29.622Z,43.00
2018-07-07T16:21:57.583Z,43.40
2018-07-07T16:26:52.848Z,42.00
2018-07-07T16:29:20.576Z,42.00
2018-07-07T16:31:48.207Z,42.70
2018-07-07T16:34:16.391Z,43.20
2018-07-07T16:36:44.051Z,43.20
2018-07-07T16:39:11.757Z,43.50
2018-07-07T16:41:39.508Z,44.30
2018-07-07T16:44:07.218Z,43.00
2018-07-07T16:46:35.773Z,43.70
2018-07-07T16:49:04.141Z,43.90
2018-07-07T16:51:31.942Z,44.60
2018-07-07T16:54:00.837Z,44.60
2018-07-07T16:56:28.661Z,44.10
2018-07-07T16:58:56.681Z,45.00
2018-07-07T17:01:24.984Z,45.20
2018-07-07T17:03:52.951Z,45.20
2018-07-07T17:06:20.727Z,44.60
2018-07-07T17:11:16.314Z,45.20
2018-07-07T17:13:44.221Z,45.40
2018-07-07T17:16:12.091Z,44.90
2018-07-07T17:23:35.303Z,45.70
2018-07-07T17:26:03.224Z,46.20
2018-07-07T17:28:30.939Z,46.80
2018-07-07T17:30:59.457Z,46.50
2018-07-07T17:33:27.305Z,46.60
2018-07-07T17:35:55.051Z,46.50
2018-07-07T17:38:22.957Z,46.20
2018-07-07T17:40:51.389Z,46.80
2018-07-07T17:43:19.569Z,47.70
2018-07-07T17:45:47.283Z,47.60
2018-07-07T17:48:15.061Z,48.30
2018-07-07T17:50:42.820Z,47.70
2018-07-07T17:55:38.483Z,48.60
2018-07-07T17:58:06.340Z,47.70
2018-07-07T18:00:34.122Z,48.70
2018-07-07T18:03:03.482Z,48.00
2018-07-07T18:05:31.225Z,48.30
2018-07-07T18:07:59.010Z,48.10
2018-07-07T18:10:26.827Z,48.50
2018-07-07T18:12:54.655Z,48.30
2018-07-07T18:15:23.248Z,48.40
2018-07-07T18:17:51.170Z,48.80
2018-07-07T18:20:18.956Z,50.40
2018-07-07T18:22:46.788Z,50.00
2018-07-07T18:25:14.572Z,49.80
2018-07-07T18:27:42.264Z,51.10
2018-07-07T18:30:10.140Z,54.10
2018-07-07T18:32:38.088Z,50.80
2018-07-07T18:37:33.569Z,55.10
2018-07-07T18:40:01.419Z,56.50
2018-07-07T18:42:29.200Z,57.10
2018-07-07T18:44:56.960Z,56.50
2018-07-07T18:47:24.729Z,58.50
2018-07-07T18:49:52.551Z,58.40
2018-07-07T18:52:20.321Z,56.00
2018-07-07T18:54:48.042Z,59.10
2018-07-07T18:57:15.802Z,59.80
2018-07-07T18:59:43.656Z,60.80
2018-07-07T19:02:11.508Z,61.50
2018-07-07T19:04:40.381Z,61.10
2018-07-07T19:07:08.056Z,62.90
2018-07-07T19:09:36.292Z,62.00
2018-07-07T19:14:32.156Z,63.00
2018-07-07T19:16:59.964Z,66.00
2018-07-07T19:19:27.741Z,65.80
2018-07-07T19:22:01.926Z,66.80
2018-07-07T19:24:35.374Z,67.50
2018-07-07T19:27:05.047Z,68.30
2018-07-07T19:29:33.464Z,68.10
2018-07-07T19:32:07.682Z,69.00
2018-07-07T19:34:42.132Z,69.80
2018-07-07T19:37:12.429Z,69.90
2018-07-07T19:39:40.250Z,70.80
2018-07-07T19:42:09.019Z,71.50
2018-07-07T19:44:37.368Z,72.30
2018-07-07T19:47:05.570Z,72.70
2018-07-07T19:49:37.310Z,74.30
2018-07-07T19:52:05.058Z,75.00
2018-07-07T19:54:32.941Z,76.40
2018-07-07T19:57:00.748Z,76.90
2018-07-07T20:04:24.549Z,80.20
2018-07-07T20:06:52.244Z,80.70
2018-07-07T20:09:20.023Z,81.50
2018-07-07T20:11:47.736Z,82.60
2018-07-07T20:14:24.237Z,82.70
2018-07-07T20:17:09.706Z,83.40
2018-07-07T20:20:56.184Z,84.50
2018-07-07T20:23:24.383Z,85.40
2018-07-07T20:28:31.337Z,87.40
2018-07-07T20:30:59.346Z,88.20
2018-07-07T20:33:27.799Z,89.00
2018-07-07T20:35:55.485Z,90.00
2018-07-07T20:40:50.844Z,90.80
2018-07-07T20:43:18.666Z,91.30
2018-07-07T20:48:14.167Z,91.80
2018-07-07T20:50:42.004Z,92.20
2018-07-07T20:53:09.896Z,92.50
2018-07-07T20:55:37.645Z,92.70
2018-07-07T20:58:05.459Z,93.30
2018-07-07T21:03:01.018Z,94.00
2018-07-07T21:05:28.670Z,93.60
2018-07-07T21:07:56.412Z,93.90
2018-07-07T21:15:20.827Z,94.50
2018-07-07T21:20:16.228Z,94.60
2018-07-07T21:22:43.945Z,95.00
2018-07-07T21:25:11.653Z,95.50
2018-07-07T21:27:39.743Z,95.80
2018-07-07T21:32:35.141Z,96.10
2018-07-07T21:35:02.824Z,96.40
2018-07-07T21:42:28.631Z,96.90
2018-07-07T21:44:59.359Z,97.60
2018-07-07T21:47:28.166Z,97.10
2018-07-07T21:49:56.427Z,97.90
2018-07-07T21:52:25.054Z,98.10
2018-07-07T21:57:27.207Z,98.80
2018-07-07T21:59:55.783Z,98.70
2018-07-07T22:02:30.622Z,99.30
2018-07-07T22:05:06.207Z,99.40
2018-07-07T22:07:41.487Z,99.60
2018-07-07T22:10:09.586Z,99.80
2018-07-07T22:12:37.881Z,99.90
2018-07-07T22:15:06.367Z,99.90
2018-07-07T22:20:05.833Z,99.90
2018-07-07T22:22:34.595Z,99.90
2018-07-07T22:25:03.229Z,99.90
2018-07-07T22:27:31.066Z,99.90
2018-07-07T22:30:01.630Z,99.90
2018-07-07T22:32:36.415Z,99.90
2018-07-07T22:35:09.812Z,99.90
2018-07-07T22:37:38.066Z,99.90
2018-07-07T22:40:07.501Z,99.90
2018-07-07T22:42:35.206Z,99.90
2018-07-07T22:45:02.925Z,99.90
2018-07-07T22:47:30.599Z,99.90
2018-07-07T22:49:58.380Z,99.90
2018-07-07T22:52:26.038Z,99.90
2018-07-07T22:54:53.688Z,99.90
2018-07-07T22:57:21.378Z,99.90
2018-07-07T22:59:49.013Z,99.90
2018-07-07T23:02:16.707Z,99.90
2018-07-07T23:07:12.143Z,99.90
2018-07-07T23:09:39.858Z,99.90
2018-07-07T23:12:07.624Z,99.90
2018-07-07T23:14:35.460Z,99.90
2018-07-07T23:17:03.168Z,99.90
2018-07-07T23:19:30.927Z,99.90
2018-07-07T23:21:58.678Z,99.90
2018-07-07T23:24:26.459Z,99.90
2018-07-07T23:31:49.449Z,99.90
2018-07-07T23:36:45.162Z,99.90
2018-07-07T23:39:12.907Z,99.90
2018-07-07T23:41:40.643Z,99.90
2018-07-07T23:44:08.314Z,99.90
2018-07-07T23:46:36.533Z,99.90
2018-07-07T23:49:04.509Z,99.90
2018-07-07T23:51:32.210Z,99.90
2018-07-07T23:54:00.096Z,99.90
2018-07-07T23:56:27.711Z,99.90
